Time;durP1;ratioP1;P1;durP2;ratioP2;P2;SDS_P1;SDS_P2;PMS_P1;PMS_P2;Temp;Humidity;BMP_temperature;BMP_pressure;BME280_temperature;BME280_humidity;BME280_pressure;Samples;Min_cycle;Max_cycle;Signal;HPM_P1;HPM_P2
2021/12/02 00:00:46;;;;;;;340.80;160.57;;;;;;;14.72;100.00;99042.56;5065358;28;20145;-69
2021/12/02 00:03:36;;;;;;;323.73;162.02;;;;;;;14.78;100.00;99031.09;5064465;28;20052;-68
2021/12/02 00:06:26;;;;;;;322.10;160.73;;;;;;;14.80;100.00;99027.53;5045378;28;20044;-69
2021/12/02 00:09:09;;;;;;;331.98;164.38;;;;;;;14.82;100.00;99019.72;5044431;28;20155;-68
2021/12/02 00:12:00;;;;;;;319.15;165.07;;;;;;;14.86;100.00;99021.25;5063334;28;20099;-69
2021/12/02 00:14:50;;;;;;;344.63;167.05;;;;;;;14.87;100.00;99017.75;5064560;28;20131;-69
2021/12/02 00:17:41;;;;;;;352.27;167.75;;;;;;;14.85;100.00;99025.59;5068266;28;20064;-69
2021/12/02 00:23:36;;;;;;;351.33;166.38;;;;;;;14.72;100.00;99052.09;5048261;28;20142;-69
2021/12/02 00:26:20;;;;;;;373.73;174.07;;;;;;;14.73;100.00;99062.41;5063982;28;20677;-69
2021/12/02 00:29:14;;;;;;;353.25;172.82;;;;;;;14.77;100.00;99066.56;5048268;28;20052;-69
2021/12/02 00:32:01;;;;;;;360.33;173.57;;;;;;;14.81;100.00;99067.28;5057394;28;20484;-69
2021/12/02 00:34:51;;;;;;;;;;;;;;;14.81;100.00;99064.69;5069556;28;20050;-69
2021/12/02 00:37:40;;;;;;;368.65;174.35;;;;;;;14.78;100.00;99070.84;5056721;27;19932;-69
2021/12/02 00:40:34;;;;;;;360.35;176.73;;;;;;;14.79;100.00;99082.06;5053501;28;20049;-68
2021/12/02 00:43:24;;;;;;;367.75;182.48;;;;;;;14.76;100.00;99083.06;5062954;28;20095;-69
2021/12/02 00:46:12;;;;;;;381.35;190.20;;;;;;;14.79;100.00;99075.13;5061856;28;20443;-67
2021/12/02 00:49:04;;;;;;;389.23;189.63;;;;;;;14.82;100.00;99077.63;5058413;28;20469;-67
2021/12/02 00:51:58;;;;;;;378.95;188.68;;;;;;;14.78;100.00;99060.47;5047289;28;20052;-68
2021/12/02 00:54:46;;;;;;;371.50;189.00;;;;;;;14.82;100.00;99056.88;5049416;28;20045;-68
2021/12/02 00:57:41;;;;;;;375.48;185.07;;;;;;;14.76;100.00;99064.91;5067075;28;20432;-68
2021/12/02 01:00:25;;;;;;;373.20;185.00;;;;;;;14.75;100.00;99063.22;5050703;28;20037;-68
2021/12/02 01:03:15;;;;;;;386.67;190.18;;;;;;;14.74;100.00;99074.50;5060521;28;20050;-69
2021/12/02 01:05:59;;;;;;;378.05;188.82;;;;;;;14.75;100.00;99081.38;5051143;28;20053;-69
2021/12/02 01:08:48;;;;;;;403.17;190.10;;;;;;;14.73;100.00;99082.31;5071039;28;20569;-69
2021/12/02 01:11:38;;;;;;;393.15;194.02;;;;;;;14.73;100.00;99088.34;5080698;28;20048;-69
2021/12/02 01:14:21;;;;;;;389.30;192.43;;;;;;;14.70;100.00;99101.44;5055511;28;20051;-69
2021/12/02 01:17:11;;;;;;;386.45;194.27;;;;;;;14.69;100.00;99110.13;5058262;28;20049;-68
2021/12/02 01:20:00;;;;;;;390.08;190.52;;;;;;;14.71;100.00;99105.72;5051861;28;20041;-68
2021/12/02 01:22:51;;;;;;;389.20;192.90;;;;;;;14.72;100.00;99104.81;5065513;28;20036;-68
2021/12/02 01:25:33;;;;;;;397.52;191.38;;;;;;;14.70;100.00;99109.22;5056113;28;20135;-67
2021/12/02 01:28:25;;;;;;;374.33;186.18;;;;;;;14.67;100.00;99111.09;5054600;28;20143;-69
2021/12/02 01:31:08;;;;;;;375.15;192.07;;;;;;;14.60;100.00;99118.28;5067338;28;20048;-68
2021/12/02 01:33:59;;;;;;;415.05;196.40;;;;;;;14.67;100.00;99116.28;5055363;28;20057;-69
2021/12/02 01:36:42;;;;;;;393.67;197.68;;;;;;;14.71;100.00;99126.47;5053474;27;20044;-69
2021/12/02 01:39:32;;;;;;;385.30;191.45;;;;;;;14.54;100.00;99115.91;5062881;28;20060;-69
2021/12/02 01:42:24;;;;;;;401.57;203.10;;;;;;;14.42;100.00;99122.44;5061760;28;20056;-69
2021/12/02 01:45:20;;;;;;;400.38;198.82;;;;;;;14.35;100.00;99138.25;5054293;28;20301;-69
2021/12/02 01:48:25;;;;;;;410.73;200.07;;;;;;;14.44;100.00;99143.13;5047806;28;20056;-69
2021/12/02 01:51:15;;;;;;;401.33;197.60;;;;;;;14.65;100.00;99142.28;5050373;28;20135;-69
2021/12/02 01:54:15;;;;;;;412.17;200.75;;;;;;;14.86;100.00;99138.81;5067099;28;20475;-69
2021/12/02 01:57:04;;;;;;;418.30;205.63;;;;;;;15.09;100.00;99150.00;5067085;28;20063;-70
2021/12/02 02:00:10;;;;;;;409.63;201.77;;;;;;;14.90;100.00;99162.91;5055427;28;20533;-70
2021/12/02 02:02:54;;;;;;;447.77;228.25;;;;;;;14.92;100.00;99171.47;5061913;28;20113;-69
2021/12/02 02:05:43;;;;;;;454.85;234.38;;;;;;;15.06;100.00;99173.50;5063599;28;20058;-70
2021/12/02 02:08:27;;;;;;;446.58;224.05;;;;;;;14.86;100.00;99161.31;5059215;28;20048;-70
2021/12/02 02:11:24;;;;;;;461.85;230.15;;;;;;;14.78;100.00;99177.19;5053682;28;20048;-70
2021/12/02 02:14:01;;;;;;;465.77;238.13;;;;;;;14.83;100.00;99185.66;5050589;28;20068;-70
2021/12/02 02:16:51;;;;;;;471.90;240.02;;;;;;;14.74;100.00;99198.97;5056016;28;20639;-70
2021/12/02 02:19:34;;;;;;;485.88;250.77;;;;;;;14.59;100.00;99191.78;5056304;28;20056;-70
2021/12/02 02:22:24;;;;;;;478.40;247.18;;;;;;;14.53;100.00;99190.25;5060155;28;20044;-70
2021/12/02 02:25:11;;;;;;;506.88;252.73;;;;;;;14.51;100.00;99193.81;5058316;28;20040;-70
2021/12/02 02:28:02;;;;;;;504.02;251.32;;;;;;;14.51;100.00;99186.03;5061223;28;20418;-70
2021/12/02 02:30:52;;;;;;;513.08;254.13;;;;;;;14.55;100.00;99180.69;5064683;28;20050;-70
2021/12/02 02:33:52;;;;;;;490.48;255.95;;;;;;;14.38;100.00;99197.72;5059379;28;20049;-69
2021/12/02 02:36:38;;;;;;;500.25;253.30;;;;;;;14.44;100.00;99207.91;5065595;27;20126;-70
2021/12/02 02:39:30;;;;;;;509.48;252.98;;;;;;;14.49;100.00;99221.53;5062280;28;20052;-70
2021/12/02 02:42:13;;;;;;;517.33;257.60;;;;;;;14.44;100.00;99215.69;5061242;28;20057;-69
2021/12/02 02:45:02;;;;;;;516.85;259.90;;;;;;;14.45;100.00;99209.59;5056029;28;20136;-69
2021/12/02 02:47:44;;;;;;;512.00;266.67;;;;;;;14.52;100.00;99211.06;5063905;28;20165;-70
2021/12/02 02:50:34;;;;;;;520.97;264.50;;;;;;;14.50;100.00;99211.13;5058280;28;20040;-69
2021/12/02 02:53:22;;;;;;;505.17;257.77;;;;;;;14.53;100.00;99205.81;5060347;28;20052;-70
2021/12/02 02:56:15;;;;;;;503.17;262.02;;;;;;;14.94;100.00;99214.59;5063869;28;20055;-70
2021/12/02 03:05:38;;;;;;;533.40;276.83;;;;;;;14.82;100.00;99212.50;4991697;28;20050;-70
2021/12/02 03:08:30;;;;;;;547.90;286.77;;;;;;;14.84;100.00;99212.44;5059728;28;20625;-70
2021/12/02 03:11:20;;;;;;;558.78;300.90;;;;;;;15.04;100.00;99224.63;5064450;28;20058;-71
2021/12/02 03:14:10;;;;;;;560.92;295.05;;;;;;;15.12;100.00;99233.78;5061046;28;20095;-70
2021/12/02 03:16:58;;;;;;;549.92;293.00;;;;;;;15.15;100.00;99238.03;5063801;28;20053;-70
2021/12/02 03:19:40;;;;;;;560.80;299.88;;;;;;;15.17;100.00;99233.59;5029573;28;20052;-70
2021/12/02 03:22:28;;;;;;;563.97;300.73;;;;;;;15.24;100.00;99235.06;5063402;28;20045;-70
2021/12/02 03:25:14;;;;;;;596.85;320.55;;;;;;;15.49;100.00;99246.13;5051008;28;20147;-69
2021/12/02 03:28:04;;;;;;;617.85;326.10;;;;;;;15.64;100.00;99249.91;5063841;28;20053;-70
2021/12/02 03:30:54;;;;;;;606.38;327.45;;;;;;;15.87;100.00;99248.94;5055805;28;20052;-70
2021/12/02 03:33:45;;;;;;;601.75;326.73;;;;;;;15.83;100.00;99257.75;5063351;28;20048;-70
2021/12/02 03:36:28;;;;;;;604.53;328.13;;;;;;;15.77;100.00;99271.00;5049595;27;20106;-69
2021/12/02 03:39:26;;;;;;;611.28;327.48;;;;;;;15.86;100.00;99279.28;5059952;28;20464;-70
2021/12/02 03:42:05;;;;;;;604.83;324.33;;;;;;;15.97;100.00;99278.81;5059865;28;20048;-69
2021/12/02 03:45:02;;;;;;;611.53;332.13;;;;;;;15.91;100.00;99294.66;5064154;28;20118;-69
2021/12/02 03:47:38;;;;;;;595.78;321.35;;;;;;;15.79;100.00;99292.59;5062519;28;20048;-69
2021/12/02 03:50:27;;;;;;;593.35;320.10;;;;;;;15.85;100.00;99287.13;5064551;28;20052;-69
2021/12/02 03:53:09;;;;;;;591.00;316.80;;;;;;;15.98;100.00;99290.88;5062184;28;20570;-69
2021/12/02 03:55:58;;;;;;;604.42;317.00;;;;;;;16.15;100.00;99301.44;5054634;28;20063;-70
2021/12/02 03:58:42;;;;;;;606.08;322.70;;;;;;;16.23;100.00;99304.53;5064684;28;20044;-70
2021/12/02 04:01:38;;;;;;;593.80;318.63;;;;;;;16.32;100.00;99317.16;5065129;28;20059;-70
2021/12/02 04:04:14;;;;;;;577.70;315.38;;;;;;;16.66;100.00;99326.97;5062711;28;20044;-70
2021/12/02 04:07:02;;;;;;;572.78;313.73;;;;;;;17.18;100.00;99329.78;5066356;28;20036;-70
2021/12/02 04:09:45;;;;;;;575.88;310.27;;;;;;;17.50;100.00;99341.31;5063455;28;20044;-69
2021/12/02 04:13:03;;;;;;;583.40;310.10;;;;;;;17.69;100.00;99347.38;5068085;28;20044;-69
2021/12/02 04:15:42;;;;;;;562.15;314.00;;;;;;;17.85;100.00;99339.66;5064650;28;20044;-70
2021/12/02 04:18:31;;;;;;;574.37;312.23;;;;;;;17.82;100.00;99340.63;5053206;28;20504;-70
2021/12/02 04:21:14;;;;;;;576.53;309.08;;;;;;;17.77;100.00;99341.78;5065823;28;20056;-69
2021/12/02 04:24:03;;;;;;;559.45;306.13;;;;;;;18.17;100.00;99346.72;5056846;28;20435;-69
2021/12/02 04:26:47;;;;;;;569.58;305.15;;;;;;;18.25;100.00;99362.81;5066649;28;20488;-69
2021/12/02 04:29:37;;;;;;;571.45;307.40;;;;;;;18.39;100.00;99356.91;5048362;28;20084;-69
2021/12/02 04:32:25;;;;;;;527.10;279.63;;;;;;;18.30;100.00;99354.75;5068056;28;20052;-69
2021/12/02 04:35:08;;;;;;;487.30;256.48;;;;;;;18.41;99.38;99352.44;5059818;28;20371;-68
2021/12/02 04:38:05;;;;;;;512.90;267.65;;;;;;;18.80;98.15;99367.84;5065122;28;20041;-69
2021/12/02 04:40:42;;;;;;;507.48;264.45;;;;;;;19.27;96.11;99360.06;5064913;28;20569;-68
2021/12/02 04:43:31;;;;;;;511.38;265.88;;;;;;;19.42;99.28;99354.00;5068302;28;20062;-69
2021/12/02 04:46:14;;;;;;;468.15;244.63;;;;;;;19.23;93.21;99358.56;5047276;28;20140;-68
2021/12/02 04:49:11;;;;;;;474.55;244.10;;;;;;;19.61;91.71;99364.31;5068795;28;20079;-68
2021/12/02 04:52:02;;;;;;;427.42;214.48;;;;;;;20.04;88.42;99367.94;5069063;28;20102;-68
2021/12/02 04:54:50;;;;;;;387.38;198.85;;;;;;;20.18;87.76;99348.84;5065585;28;20507;-69
2021/12/02 04:57:39;;;;;;;387.25;191.88;;;;;;;19.90;83.43;99354.81;5049174;28;20047;-69
2021/12/02 05:00:29;;;;;;;363.17;190.07;;;;;;;19.81;84.32;99348.34;5042332;28;20788;-69
2021/12/02 05:03:11;;;;;;;365.75;180.57;;;;;;;19.62;83.61;99352.09;5043539;28;20110;-69
2021/12/02 05:06:01;;;;;;;354.75;176.10;;;;;;;19.74;84.56;99361.84;5058048;28;20049;-68
2021/12/02 05:08:43;;;;;;;384.90;185.05;;;;;;;19.78;86.51;99355.53;5065421;28;20048;-69
2021/12/02 05:11:34;;;;;;;337.20;166.95;;;;;;;20.03;83.87;99357.59;5062572;28;20058;-69
2021/12/02 05:14:16;;;;;;;341.08;170.75;;;;;;;20.35;82.06;99350.50;5065952;28;20052;-69
2021/12/02 05:17:07;;;;;;;285.88;139.85;;;;;;;20.69;76.55;99349.31;5029692;28;20036;-69
2021/12/02 05:19:49;;;;;;;283.48;141.43;;;;;;;20.85;76.78;99332.56;5065512;28;20063;-68
2021/12/02 05:22:39;;;;;;;289.42;136.65;;;;;;;20.99;79.33;99331.75;5064042;28;20071;-67
2021/12/02 05:25:21;;;;;;;267.38;133.73;;;;;;;21.02;76.51;99340.22;5063485;28;20139;-66
2021/12/02 05:28:11;;;;;;;285.95;138.93;;;;;;;20.92;75.97;99319.94;5067209;28;20056;-67
2021/12/02 05:30:53;;;;;;;289.95;141.90;;;;;;;20.96;76.32;99319.66;5067549;28;20118;-67
2021/12/02 05:33:44;;;;;;;254.45;131.90;;;;;;;21.31;75.58;99325.31;5075158;28;20131;-67
2021/12/02 05:36:26;;;;;;;263.52;132.43;;;;;;;21.69;72.64;99325.50;5064104;28;20083;-67
2021/12/02 05:39:22;;;;;;;259.08;130.63;;;;;;;21.69;72.23;99324.66;5061140;28;20057;-67
2021/12/02 05:41:58;;;;;;;253.88;121.72;;;;;;;22.10;69.35;99319.34;5066420;28;20067;-66
2021/12/02 05:44:56;;;;;;;236.70;122.93;;;;;;;21.57;69.03;99317.56;5061285;28;20048;-66
2021/12/02 05:47:32;;;;;;;235.38;114.30;;;;;;;21.27;70.40;99304.66;5069971;28;20052;-67
2021/12/02 05:50:22;;;;;;;220.70;112.43;;;;;;;21.41;67.27;99317.72;5075973;28;20064;-67
2021/12/02 05:53:05;;;;;;;215.25;111.50;;;;;;;21.61;71.37;99308.59;5067553;28;20623;-67
2021/12/02 05:56:02;;;;;;;206.07;104.28;;;;;;;21.76;69.94;99299.69;5043166;28;20036;-65
2021/12/02 05:58:38;;;;;;;212.43;109.28;;;;;;;21.72;73.25;99285.94;5073172;28;20510;-66
2021/12/02 06:01:27;;;;;;;214.38;111.28;;;;;;;21.17;74.56;99277.34;5072503;28;20071;-66
2021/12/02 06:04:20;;;;;;;233.43;119.07;;;;;;;21.09;74.46;99274.34;5072596;28;20440;-66
2021/12/02 06:07:15;;;;;;;237.50;118.50;;;;;;;20.90;81.42;99269.44;5070510;28;20055;-66
2021/12/02 06:09:52;;;;;;;237.02;117.57;;;;;;;20.73;81.16;99272.25;5046178;28;20059;-67
2021/12/02 06:12:41;;;;;;;215.05;113.50;;;;;;;20.88;80.01;99273.91;5066589;28;20048;-64
2021/12/02 06:15:31;;;;;;;224.80;114.40;;;;;;;21.36;76.05;99272.63;5072557;28;20072;-66
2021/12/02 06:18:13;;;;;;;244.38;120.35;;;;;;;21.82;77.62;99259.09;5069086;28;20056;-66
2021/12/02 06:21:03;;;;;;;225.00;116.65;;;;;;;21.56;69.69;99264.28;5067325;28;20075;-66
2021/12/02 06:23:47;;;;;;;227.45;118.85;;;;;;;21.92;73.47;99244.44;5067115;28;20056;-67
2021/12/02 06:26:37;;;;;;;228.05;115.28;;;;;;;21.94;69.36;99242.56;5061413;28;20134;-66
2021/12/02 06:29:20;;;;;;;236.55;112.50;;;;;;;22.11;69.66;99234.38;5060565;28;20127;-66
2021/12/02 06:32:12;;;;;;;235.05;114.10;;;;;;;22.42;68.06;99238.38;5066030;28;20821;-66
2021/12/02 06:34:54;;;;;;;237.73;117.55;;;;;;;22.34;67.38;99238.91;5068256;28;20521;-66
2021/12/02 06:37:50;;;;;;;228.57;111.70;;;;;;;21.50;65.24;99241.09;5061310;28;20841;-65
2021/12/02 06:40:40;;;;;;;225.20;113.88;;;;;;;21.72;69.93;99233.47;5062052;28;20132;-65
2021/12/02 06:43:29;;;;;;;235.45;115.03;;;;;;;21.76;74.69;99234.97;5064173;28;20055;-65
2021/12/02 06:46:11;;;;;;;227.75;112.85;;;;;;;21.80;68.68;99230.34;5051051;28;20060;-65
2021/12/02 06:49:00;;;;;;;223.15;113.88;;;;;;;21.66;63.48;99233.06;5066523;28;20260;-66
2021/12/02 06:51:42;;;;;;;214.85;109.78;;;;;;;21.61;64.21;99225.50;5066216;28;20044;-66
2021/12/02 06:54:31;;;;;;;215.93;114.30;;;;;;;21.85;71.47;99219.56;5059032;28;20095;-66
2021/12/02 06:57:15;;;;;;;229.00;114.20;;;;;;;21.68;65.75;99211.03;5055473;28;20048;-63
2021/12/02 07:00:08;;;;;;;228.65;111.70;;;;;;;21.62;63.15;99211.44;5058956;28;20056;-62
2021/12/02 07:02:54;;;;;;;225.77;115.40;;;;;;;21.74;63.75;99215.88;5050739;28;20102;-62
2021/12/02 07:05:44;;;;;;;;;;;;;;;21.98;63.23;99207.31;5065121;28;20052;-64
2021/12/02 07:08:29;;;;;;;232.25;117.28;;;;;;;21.86;62.67;99192.38;5060860;28;19925;-67
2021/12/02 07:11:19;;;;;;;230.43;115.97;;;;;;;22.10;64.27;99198.63;5065767;28;20052;-67
2021/12/02 07:14:10;;;;;;;228.52;117.18;;;;;;;22.33;65.10;99203.09;5064730;28;20139;-68
2021/12/02 07:17:00;;;;;;;241.63;111.53;;;;;;;22.39;64.07;99200.03;5064537;28;20055;-66
2021/12/02 07:19:42;;;;;;;237.50;116.32;;;;;;;22.45;62.18;99202.22;5047441;28;20803;-64
2021/12/02 07:22:31;;;;;;;236.60;117.47;;;;;;;22.31;60.02;99196.28;5063661;28;20055;-63
2021/12/02 07:25:13;;;;;;;243.43;115.05;;;;;;;22.37;60.25;99196.69;5066623;28;20643;-63
2021/12/02 07:28:02;;;;;;;247.25;117.15;;;;;;;22.32;62.65;99188.28;5065094;28;20102;-62
2021/12/02 07:30:47;;;;;;;222.32;114.63;;;;;;;22.42;60.65;99176.22;5064361;28;20518;-63
2021/12/02 07:33:42;;;;;;;228.07;114.63;;;;;;;22.39;60.03;99175.56;5064739;28;20155;-68
2021/12/02 07:36:32;;;;;;;230.80;120.90;;;;;;;22.30;59.09;99161.31;5053887;28;20051;-71
2021/12/02 07:39:17;;;;;;;233.60;120.15;;;;;;;22.19;60.53;99169.06;5051329;28;20270;-69
2021/12/02 07:42:06;;;;;;;235.45;120.05;;;;;;;22.35;60.25;99166.25;5042587;28;20052;-67
2021/12/02 07:44:56;;;;;;;251.60;126.65;;;;;;;22.30;60.30;99155.22;5040190;28;20128;-70
2021/12/02 07:47:44;;;;;;;270.10;129.45;;;;;;;22.40;63.01;99141.34;5043455;28;20073;-69
2021/12/02 07:50:36;;;;;;;269.23;130.98;;;;;;;22.33;68.39;99126.97;5050087;28;20056;-69
2021/12/02 07:53:18;;;;;;;249.70;130.90;;;;;;;22.11;67.33;99125.00;5049731;28;20136;-68
2021/12/02 07:56:10;;;;;;;266.15;133.07;;;;;;;22.01;65.56;99123.13;5030477;28;20048;-68
2021/12/02 07:58:52;;;;;;;264.13;133.32;;;;;;;21.96;65.19;99119.94;5037753;28;20081;-68
2021/12/02 08:01:42;;;;;;;272.70;136.00;;;;;;;22.17;66.33;99102.75;5043753;28;20061;-65
2021/12/02 08:04:24;;;;;;;275.20;136.38;;;;;;;22.24;66.50;99098.75;5044747;28;20107;-67
2021/12/02 08:07:12;;;;;;;271.73;133.90;;;;;;;22.40;67.88;99093.22;5032954;28;20822;-66
2021/12/02 08:09:55;;;;;;;256.77;122.95;;;;;;;22.51;65.14;99082.78;5039180;28;20057;-65
2021/12/02 08:12:47;;;;;;;227.52;109.20;;;;;;;22.51;60.34;99090.66;5040727;28;20063;-66
2021/12/02 08:15:31;;;;;;;198.45;102.97;;;;;;;22.51;60.94;99080.16;5025559;28;20144;-68
2021/12/02 08:18:20;;;;;;;198.95;101.63;;;;;;;22.53;59.84;99073.84;5043763;28;20059;-66
2021/12/02 08:21:08;;;;;;;122.75;61.25;;;;;;;22.64;50.88;99072.22;5044005;28;20045;-68
2021/12/02 08:23:56;;;;;;;121.78;58.53;;;;;;;22.69;49.42;99067.47;5045599;28;20068;-69
2021/12/02 08:26:38;;;;;;;91.65;46.40;;;;;;;22.62;47.77;99053.13;5050036;28;20109;-65
2021/12/02 08:29:29;;;;;;;89.68;48.13;;;;;;;22.72;47.92;99056.75;5031748;28;20064;-66
2021/12/02 08:32:12;;;;;;;90.53;45.58;;;;;;;22.79;48.99;99052.75;5047711;28;20068;-66
2021/12/02 08:35:02;;;;;;;100.88;49.50;;;;;;;22.94;48.58;99059.50;5041648;28;20465;-66
2021/12/02 08:37:46;;;;;;;104.03;49.95;;;;;;;22.93;49.71;99060.44;5056556;28;20044;-67
2021/12/02 08:40:36;;;;;;;113.15;55.83;;;;;;;22.86;50.96;99048.72;5066811;28;20056;-65
2021/12/02 08:43:18;;;;;;;136.50;58.65;;;;;;;22.87;51.34;99050.38;5069778;28;20429;-66
2021/12/02 08:46:08;;;;;;;116.53;58.08;;;;;;;22.81;52.16;99045.59;5065776;28;20055;-66
2021/12/02 08:48:53;;;;;;;115.78;58.22;;;;;;;22.83;51.43;99038.41;5062829;28;20053;-66
2021/12/02 08:51:44;;;;;;;126.07;60.33;;;;;;;22.76;51.53;99031.94;5070833;28;20053;-66
2021/12/02 08:54:26;;;;;;;124.45;61.75;;;;;;;22.73;53.51;99025.13;5073560;28;20043;-66
2021/12/02 08:57:16;;;;;;;128.27;64.15;;;;;;;22.71;56.31;99015.66;5072425;28;20064;-66
2021/12/02 08:59:58;;;;;;;127.93;65.30;;;;;;;22.59;56.78;99011.34;5068263;28;20435;-66
2021/12/02 09:02:48;;;;;;;140.63;65.53;;;;;;;22.53;58.11;99000.31;5075384;28;20048;-65
2021/12/02 09:05:30;;;;;;;147.05;71.35;;;;;;;22.42;59.60;98997.66;5054473;28;20063;-65
2021/12/02 09:08:23;;;;;;;170.02;75.40;;;;;;;22.36;60.84;98995.47;5064711;28;20052;-66
2021/12/02 09:11:07;;;;;;;154.90;76.82;;;;;;;22.32;61.38;98996.66;5062853;28;20072;-65
2021/12/02 09:14:01;;;;;;;158.18;72.70;;;;;;;22.26;62.91;99001.50;5064196;28;20052;-66
2021/12/02 09:16:43;;;;;;;147.95;75.47;;;;;;;22.23;60.47;98999.94;5066414;28;20053;-65
2021/12/02 09:19:33;;;;;;;151.60;75.82;;;;;;;22.22;61.02;98998.25;5068700;28;20048;-67
2021/12/02 09:22:16;;;;;;;145.40;72.00;;;;;;;22.07;59.27;98994.97;5052568;28;20072;-65
2021/12/02 09:25:07;;;;;;;137.48;70.07;;;;;;;22.09;60.92;99003.56;5071765;28;20040;-66
2021/12/02 09:27:49;;;;;;;156.15;71.68;;;;;;;22.14;61.84;99006.69;5075088;28;20047;-65
2021/12/02 09:30:41;;;;;;;137.60;71.80;;;;;;;22.22;61.84;99003.50;5071476;28;20074;-68
2021/12/02 09:33:22;;;;;;;;;;;;;;;22.29;59.92;98996.03;5067382;28;20049;-68
2021/12/02 09:36:13;;;;;;;146.88;71.95;;;;;;;22.38;61.57;98995.34;5081137;28;19931;-68
2021/12/02 09:38:55;;;;;;;140.18;70.03;;;;;;;22.20;59.25;99013.28;5067708;28;20049;-71
2021/12/02 09:41:44;;;;;;;134.95;69.03;;;;;;;22.13;58.00;99010.25;5070021;28;20064;-69
2021/12/02 09:44:26;;;;;;;134.85;69.35;;;;;;;22.13;58.72;99009.41;5072599;28;20769;-68
2021/12/02 09:47:18;;;;;;;132.95;63.85;;;;;;;22.04;57.10;99018.78;5051868;28;20121;-68
2021/12/02 09:50:06;;;;;;;119.07;60.45;;;;;;;22.04;56.23;99021.41;5068067;28;20052;-68
2021/12/02 09:53:05;;;;;;;107.97;54.55;;;;;;;21.90;53.43;99020.69;5049641;28;20048;-68
2021/12/02 09:59:24;;;;;;;68.45;35.72;;;;;;;21.72;45.64;99020.19;4984749;28;20058;-66
2021/12/02 10:02:17;;;;;;;81.38;37.17;;;;;;;21.70;44.83;99024.72;5086710;28;20276;-69
2021/12/02 10:05:13;;;;;;;72.47;33.90;;;;;;;21.75;45.76;99015.59;5089445;28;20105;-68
2021/12/02 10:08:01;;;;;;;62.13;31.80;;;;;;;21.77;43.60;99018.09;5067044;28;20554;-69
2021/12/02 10:11:04;;;;;;;63.60;31.48;;;;;;;21.82;43.00;99023.00;5080494;28;20113;-67
2021/12/02 10:13:49;;;;;;;68.05;33.60;;;;;;;21.79;43.39;99028.50;5056405;28;20098;-69
2021/12/02 10:16:44;;;;;;;69.90;36.67;;;;;;;21.71;44.76;99016.72;5070229;28;20052;-70
2021/12/02 10:19:29;;;;;;;90.70;40.65;;;;;;;21.67;45.89;99015.28;5064933;28;20054;-69
2021/12/02 10:22:22;;;;;;;95.65;43.05;;;;;;;21.60;49.07;99014.03;5066881;28;20045;-69
2021/12/02 10:25:27;;;;;;;89.57;43.72;;;;;;;21.55;49.57;99018.75;5070439;28;20048;-70
2021/12/02 10:28:19;;;;;;;86.03;47.55;;;;;;;21.56;48.84;99022.19;5065836;28;20135;-68
2021/12/02 10:31:09;;;;;;;105.55;47.15;;;;;;;21.53;49.00;99020.66;5070454;28;20054;-69
2021/12/02 10:34:00;;;;;;;103.93;47.95;;;;;;;21.47;52.14;99017.63;5064007;28;20582;-69
2021/12/02 10:36:49;;;;;;;100.78;46.70;;;;;;;21.35;50.91;99006.19;5066106;28;20056;-70
2021/12/02 10:39:32;;;;;;;95.60;45.15;;;;;;;21.27;49.68;99005.88;5070859;28;20059;-70
2021/12/02 10:42:23;;;;;;;91.40;43.95;;;;;;;21.20;49.06;99005.47;5071804;28;20067;-69
2021/12/02 10:45:14;;;;;;;87.63;43.25;;;;;;;21.11;50.90;99010.44;5052680;28;20049;-71
2021/12/02 10:47:57;;;;;;;94.95;43.03;;;;;;;21.07;53.97;98998.50;5026344;28;20049;-70
2021/12/02 10:50:48;;;;;;;83.30;40.13;;;;;;;21.05;55.42;98995.16;5056478;28;20044;-70
2021/12/02 10:54:00;;;;;;;90.80;40.00;;;;;;;20.97;56.09;98995.66;5064711;28;20040;-70
2021/12/02 10:56:54;;;;;;;90.78;40.95;;;;;;;20.92;56.78;98998.56;5063481;28;20074;-70
2021/12/02 10:59:41;;;;;;;83.30;40.78;;;;;;;20.77;58.08;98988.28;5048334;28;20566;-69
2021/12/02 11:02:34;;;;;;;90.77;41.03;;;;;;;20.67;58.78;98995.09;5032272;28;20055;-69
2021/12/02 11:05:30;;;;;;;80.45;39.22;;;;;;;20.53;60.60;98994.22;5067966;28;20135;-68
2021/12/02 11:08:23;;;;;;;76.55;39.55;;;;;;;20.39;61.46;98991.66;5072717;28;20059;-69
2021/12/02 11:11:23;;;;;;;94.80;41.90;;;;;;;20.26;63.79;98990.75;5064015;28;20640;-68
2021/12/02 11:14:19;;;;;;;80.03;38.90;;;;;;;20.22;63.76;98979.63;5061924;28;20063;-67
2021/12/02 11:17:11;;;;;;;98.68;41.45;;;;;;;20.12;66.10;98973.31;5045351;28;21590;-67
2021/12/02 11:20:04;;;;;;;91.70;41.42;;;;;;;19.95;64.59;98970.97;5062957;28;20372;-70
2021/12/02 11:22:49;;;;;;;91.50;37.78;;;;;;;19.85;61.00;98975.09;5064891;28;20643;-70
2021/12/02 11:25:42;;;;;;;72.35;36.78;;;;;;;19.88;61.99;98975.72;5063762;28;20053;-70
2021/12/02 11:28:30;;;;;;;73.45;35.70;;;;;;;19.75;63.27;98969.59;5051282;28;20059;-69
2021/12/02 11:31:27;;;;;;;78.65;35.75;;;;;;;19.78;60.94;98963.34;5064374;28;20048;-68
2021/12/02 11:34:16;;;;;;;69.90;31.92;;;;;;;19.60;61.29;98960.09;5061885;28;20391;-68
2021/12/02 11:37:11;;;;;;;68.47;32.72;;;;;;;19.57;62.62;98964.66;5071809;28;20044;-68
2021/12/02 11:40:09;;;;;;;71.93;31.35;;;;;;;19.40;64.03;98953.44;5063888;28;20036;-69
2021/12/02 11:42:59;;;;;;;67.90;30.83;;;;;;;19.18;64.02;98947.84;5033339;28;20594;-68
2021/12/02 11:45:46;;;;;;;79.00;32.33;;;;;;;18.95;66.00;98941.41;5046982;28;20218;-67
2021/12/02 11:48:42;;;;;;;73.28;31.15;;;;;;;18.87;66.79;98942.78;5062998;28;20048;-68
2021/12/02 11:51:25;;;;;;;76.35;29.50;;;;;;;18.77;66.86;98946.88;5049436;28;20052;-66
2021/12/02 11:54:16;;;;;;;79.70;31.70;;;;;;;18.65;66.67;98943.22;5067689;28;20052;-64
2021/12/02 11:57:03;;;;;;;82.88;30.73;;;;;;;18.50;67.60;98950.16;5072659;28;20056;-69
2021/12/02 11:59:54;;;;;;;81.25;32.60;;;;;;;18.33;69.05;98956.34;5065029;28;20136;-69
2021/12/02 12:03:04;;;;;;;78.47;31.25;;;;;;;18.24;70.57;98949.03;5064614;28;20048;-68
2021/12/02 12:05:46;;;;;;;86.32;31.80;;;;;;;18.16;69.17;98950.38;5057136;28;20055;-69
2021/12/02 12:08:39;;;;;;;72.53;32.17;;;;;;;18.06;69.64;98952.66;5081541;28;20048;-70
2021/12/02 12:11:41;;;;;;;82.70;33.22;;;;;;;17.97;70.65;98956.63;5069441;28;20123;-70
2021/12/02 12:14:35;;;;;;;72.60;33.90;;;;;;;17.86;72.15;98958.16;5065908;28;20136;-70
2021/12/02 12:17:20;;;;;;;81.35;34.92;;;;;;;17.77;72.97;98949.09;5066467;28;20068;-70
2021/12/02 12:20:17;;;;;;;79.00;35.05;;;;;;;17.68;74.14;98946.97;5076106;28;20043;-69
2021/12/02 12:23:01;;;;;;;73.80;32.97;;;;;;;17.67;73.50;98953.09;5072838;28;20117;-69
2021/12/02 12:26:09;;;;;;;88.72;34.75;;;;;;;17.55;75.69;98944.19;5079104;28;20051;-69
2021/12/02 12:29:13;;;;;;;77.68;34.38;;;;;;;17.45;76.84;98944.75;5084323;28;20048;-71
2021/12/02 12:32:18;;;;;;;92.95;34.28;;;;;;;17.47;78.22;98948.13;5065364;28;20045;-69
2021/12/02 12:35:23;;;;;;;94.15;33.95;;;;;;;17.43;78.97;98957.00;5051469;28;20044;-70
2021/12/02 12:38:33;;;;;;;83.68;33.30;;;;;;;17.30;78.55;98959.44;5058749;27;20056;-69
2021/12/02 12:41:23;;;;;;;94.82;34.85;;;;;;;17.20;79.11;98963.44;5061015;28;20057;-69
2021/12/02 12:44:07;;;;;;;95.25;35.65;;;;;;;17.15;80.39;98968.88;5066784;28;20043;-69
2021/12/02 12:46:56;;;;;;;93.53;35.40;;;;;;;17.14;81.99;98967.19;5057053;28;20063;-68
2021/12/02 12:49:46;;;;;;;105.85;36.65;;;;;;;17.05;81.27;98970.28;5054219;28;20131;-70
2021/12/02 12:52:29;;;;;;;97.32;36.40;;;;;;;17.10;82.73;98972.63;5048052;28;20052;-70
2021/12/02 12:55:28;;;;;;;90.63;35.97;;;;;;;17.14;83.36;98980.22;5069866;28;20542;-69